logo
Rechercher aéroport 
image banner adimage banner adimage banner ad
image banner ad

SVOM - Banco Occidental De Descuento (Bod)

Situé à El Rosal, Venezuela

ICAO - , IATA -

Données fournies par Airmate  

Information générale

Coordonnées: N10°29'35" W66°55'56"
Élévation : 2916 feet MSL.
 
Voir autres Aéroports à Distrito Federal

Données opérationnelles

Special qualification required
Heure actuelle UTC:
Heure actuelle locale:
METAR: SVMI 232103Z AUTO 02004KT NCD 29/24 Q1014
TAF: TAF SVMI 231600Z 2318/2418 09008KT 9999 BKN016 TX34/2218Z TN22/2308Z TEMPO 2318/2322 08010KT 9000 VCTSDZ BKN010CB
Voir NOTAMs / SUP AIP / TFR affectant cet aéroport [VIEW]
Fréquences de communication: [VIEW]

Pistes:

Coordonnées de l'aéroport

Adresse: El Rosal Venezuela

Vue satellite de SVOM